Time;durP1;ratioP1;P1;durP2;ratioP2;P2;SDS_P1;SDS_P2;PMS_P1;PMS_P2;Temp;Humidity;BMP_temperature;BMP_pressure;BME280_temperature;BME280_humidity;BME280_pressure;Samples;Min_cycle;Max_cycle;Signal;HPM_P1;HPM_P2
2022/02/19 00:00:41;;;;;;;7.00;2.43;;;;;;;7.08;63.11;97616.09;5116066;28;20215;-70
2022/02/19 00:03:08;;;;;;;5.73;1.47;;;;;;;7.21;61.76;97622.25;5104943;28;20215;-71
2022/02/19 00:05:37;;;;;;;6.70;1.77;;;;;;;7.23;61.70;97625.66;5114332;28;20210;-70
2022/02/19 00:08:04;;;;;;;5.67;1.60;;;;;;;7.27;61.26;97621.88;5115674;28;20735;-70
2022/02/19 00:10:31;;;;;;;3.13;1.37;;;;;;;7.23;60.53;97623.84;5115914;28;20574;-71
2022/02/19 00:12:58;;;;;;;7.73;1.70;;;;;;;7.27;60.16;97632.38;5104223;28;20684;-70
2022/02/19 00:15:25;;;;;;;3.90;1.30;;;;;;;7.22;60.55;97629.22;5115769;28;20261;-70
2022/02/19 00:17:52;;;;;;;4.57;1.27;;;;;;;7.09;61.29;97628.28;5115438;28;20229;-70
2022/02/19 00:20:19;;;;;;;7.47;1.40;;;;;;;7.02;62.06;97636.69;5115709;28;20217;-70
2022/02/19 00:22:47;;;;;;;6.33;1.67;;;;;;;6.98;62.59;97645.69;5115665;28;20225;-71
2022/02/19 00:25:13;;;;;;;7.23;1.63;;;;;;;6.92;62.47;97651.31;5115729;28;20217;-70
2022/02/19 00:27:40;;;;;;;8.00;1.93;;;;;;;7.00;61.25;97647.28;5115684;28;20216;-71
2022/02/19 00:30:08;;;;;;;4.73;1.87;;;;;;;7.06;61.11;97651.28;5115297;28;20207;-70
2022/02/19 00:32:35;;;;;;;6.83;1.90;;;;;;;7.01;61.24;97671.78;5113744;28;20221;-70
2022/02/19 00:35:01;;;;;;;7.40;1.67;;;;;;;6.98;61.44;97661.44;5115306;28;20215;-71
2022/02/19 00:37:28;;;;;;;5.93;1.63;;;;;;;6.87;62.82;97662.13;5115423;28;20240;-70
2022/02/19 00:39:56;;;;;;;6.83;1.60;;;;;;;6.94;61.12;97679.19;5115042;28;20226;-71
2022/02/19 00:42:22;;;;;;;6.67;2.37;;;;;;;6.88;62.16;97673.44;5115364;28;20263;-71
2022/02/19 00:44:49;;;;;;;6.97;1.83;;;;;;;6.89;61.85;97676.00;5115461;28;20206;-71
2022/02/19 00:47:15;;;;;;;4.10;1.40;;;;;;;6.97;61.02;97671.09;5112743;28;20210;-71
2022/02/19 00:49:42;;;;;;;6.00;1.70;;;;;;;6.99;60.25;97678.88;5112973;28;20211;-71
2022/02/19 00:52:08;;;;;;;6.23;1.73;;;;;;;6.93;60.69;97680.13;5114855;28;20214;-71
2022/02/19 00:54:35;;;;;;;6.30;1.70;;;;;;;6.91;61.01;97697.75;5115658;28;20215;-71
2022/02/19 00:57:03;;;;;;;6.67;1.30;;;;;;;6.94;60.43;97692.31;5114738;28;20242;-70
2022/02/19 00:59:29;;;;;;;7.10;2.00;;;;;;;6.95;59.69;97704.50;5113674;28;20685;-70
2022/02/19 01:01:56;;;;;;;4.60;1.40;;;;;;;6.92;60.04;97709.09;5115181;28;20211;-70
2022/02/19 01:04:22;;;;;;;6.40;1.63;;;;;;;6.94;58.84;97705.44;5114715;28;20220;-70
2022/02/19 01:06:49;;;;;;;6.07;1.77;;;;;;;6.91;58.89;97718.75;5114900;28;20236;-70
2022/02/19 01:09:15;;;;;;;5.73;1.40;;;;;;;6.88;60.28;97716.34;5114438;28;20715;-70
2022/02/19 01:11:42;;;;;;;5.00;1.97;;;;;;;6.81;59.90;97717.66;5114772;28;20239;-70
2022/02/19 01:14:12;;;;;;;3.60;1.47;;;;;;;6.78;60.29;97728.31;5114759;28;20216;-70
2022/02/19 01:16:39;;;;;;;7.87;1.60;;;;;;;6.72;60.96;97723.44;5114537;28;20243;-70
2022/02/19 01:19:05;;;;;;;5.03;1.40;;;;;;;6.74;60.34;97726.84;5114535;28;20267;-71
2022/02/19 01:21:32;;;;;;;4.43;1.43;;;;;;;6.94;57.95;97733.50;5114521;28;20221;-71
2022/02/19 01:23:59;;;;;;;3.67;1.30;;;;;;;6.88;58.68;97734.72;5112852;28;20212;-70
2022/02/19 01:26:25;;;;;;;4.53;1.80;;;;;;;6.88;59.38;97734.72;5114438;28;20221;-70
2022/02/19 01:28:52;;;;;;;8.23;1.90;;;;;;;7.07;56.81;97744.94;5114278;28;20210;-71
2022/02/19 01:31:20;;;;;;;4.90;1.37;;;;;;;7.04;56.31;97746.00;5114037;28;20309;-71
2022/02/19 01:33:46;;;;;;;4.70;1.30;;;;;;;7.03;56.25;97760.03;5114080;28;20217;-71
2022/02/19 01:36:13;;;;;;;7.47;1.43;;;;;;;6.98;57.26;97751.63;5113912;28;20214;-71
2022/02/19 01:38:40;;;;;;;4.50;1.67;;;;;;;6.91;56.44;97760.78;5114129;28;20220;-71
2022/02/19 01:41:06;;;;;;;6.50;1.33;;;;;;;6.92;55.21;97746.75;5111468;28;20216;-71
2022/02/19 01:43:33;;;;;;;5.40;1.50;;;;;;;7.02;54.46;97768.88;5114223;28;20212;-71
2022/02/19 01:45:59;;;;;;;4.53;1.30;;;;;;;6.97;54.87;97776.19;5114202;28;20211;-71
2022/02/19 01:48:27;;;;;;;4.53;1.40;;;;;;;6.97;53.60;97747.28;5114055;28;20216;-70
2022/02/19 01:50:54;;;;;;;3.73;1.20;;;;;;;6.97;53.43;97757.78;5112357;28;20218;-70
2022/02/19 01:53:22;;;;;;;5.77;1.17;;;;;;;6.90;53.51;97758.28;5114077;28;20211;-70
2022/02/19 01:55:48;;;;;;;3.20;1.30;;;;;;;6.85;53.66;97765.59;5114079;28;20215;-70
2022/02/19 01:58:15;;;;;;;2.57;1.20;;;;;;;6.79;53.42;97766.78;5113958;28;20240;-70
2022/02/19 02:00:43;;;;;;;2.97;1.30;;;;;;;6.72;53.51;97768.09;5112617;28;20220;-70
2022/02/19 02:03:09;;;;;;;6.90;1.53;;;;;;;6.78;54.00;97759.84;5113037;28;20215;-70
2022/02/19 02:05:37;;;;;;;3.07;1.40;;;;;;;6.82;52.59;97769.25;5113059;28;20611;-70
2022/02/19 02:08:05;;;;;;;6.07;1.43;;;;;;;6.79;53.10;97777.28;5113265;28;20288;-70
2022/02/19 02:10:33;;;;;;;3.33;1.20;;;;;;;6.79;52.80;97776.47;5112185;28;20292;-70
2022/02/19 02:13:00;;;;;;;3.77;1.30;;;;;;;6.69;53.51;97789.28;5113753;28;20242;-71
2022/02/19 02:15:28;;;;;;;3.30;1.13;;;;;;;6.61;54.08;97806.44;5111889;28;20213;-70
2022/02/19 02:17:56;;;;;;;2.60;1.10;;;;;;;6.54;54.70;97805.09;5113402;28;20239;-71
2022/02/19 02:20:23;;;;;;;7.57;1.53;;;;;;;6.63;54.38;97796.66;5113225;28;20228;-71
2022/02/19 02:22:51;;;;;;;4.73;1.50;;;;;;;6.62;53.90;97806.34;5113685;28;20210;-71
2022/02/19 02:25:25;;;;;;;9.87;2.87;;;;;;;6.70;54.01;97798.84;5113341;28;20221;-71
2022/02/19 02:27:52;;;;;;;4.40;2.33;;;;;;;6.62;54.48;97801.09;5113656;28;20219;-71
2022/02/19 02:30:18;;;;;;;7.43;1.53;;;;;;;6.56;54.57;97798.84;5113531;28;20216;-70
2022/02/19 02:32:45;;;;;;;8.13;1.30;;;;;;;6.47;55.28;97806.41;5113420;28;20212;-70
2022/02/19 02:35:11;;;;;;;6.17;1.50;;;;;;;6.42;55.40;97814.50;5113559;28;20207;-70
2022/02/19 02:37:38;;;;;;;2.50;1.40;;;;;;;6.49;54.44;97815.88;5112928;28;20702;-71
2022/02/19 02:40:07;;;;;;;4.53;1.23;;;;;;;6.38;55.34;97823.53;5113296;28;20206;-70
2022/02/19 02:42:34;;;;;;;13.13;1.93;;;;;;;6.32;55.93;97829.13;5111461;28;20210;-70
2022/02/19 02:45:00;;;;;;;7.13;1.87;;;;;;;6.19;56.64;97829.91;5113362;28;20219;-70
2022/02/19 02:47:27;;;;;;;4.33;1.50;;;;;;;6.13;56.85;97830.22;5113273;28;20210;-70
2022/02/19 02:49:53;;;;;;;6.13;1.70;;;;;;;6.03;58.12;97831.66;5113162;28;20216;-70
2022/02/19 02:52:20;;;;;;;5.10;1.60;;;;;;;5.96;58.31;97841.69;5113417;28;20211;-70
2022/02/19 02:54:46;;;;;;;8.27;1.50;;;;;;;5.95;58.80;97850.47;5113265;28;20207;-70
2022/02/19 02:57:14;;;;;;;4.37;1.70;;;;;;;5.98;58.44;97845.06;5113183;28;20234;-70
2022/02/19 02:59:41;;;;;;;6.07;1.70;;;;;;;5.96;58.27;97852.16;5113247;28;20220;-70
2022/02/19 03:02:09;;;;;;;5.90;1.43;;;;;;;5.93;58.12;97844.47;5113240;28;20234;-70
2022/02/19 03:04:36;;;;;;;6.00;1.57;;;;;;;6.05;57.41;97846.41;5112874;28;20216;-70
2022/02/19 03:07:02;;;;;;;4.70;1.40;;;;;;;5.96;58.73;97865.28;5112966;28;20214;-70
2022/02/19 03:09:29;;;;;;;6.53;1.53;;;;;;;5.89;57.72;97866.56;5111098;28;20235;-71
2022/02/19 03:11:55;;;;;;;6.37;1.40;;;;;;;5.88;58.54;97858.75;5101621;28;20218;-70
2022/02/19 03:14:23;;;;;;;6.77;1.73;;;;;;;5.82;59.05;97875.69;5112793;28;20215;-70
2022/02/19 03:16:49;;;;;;;3.97;1.33;;;;;;;5.78;59.07;97882.00;5116403;28;20225;-71
2022/02/19 03:19:16;;;;;;;5.53;1.43;;;;;;;5.76;58.31;97876.00;5116796;28;20225;-70
2022/02/19 03:21:42;;;;;;;3.20;1.20;;;;;;;5.81;57.51;97889.72;5116777;28;20567;-71
2022/02/19 03:24:09;;;;;;;5.37;1.60;;;;;;;5.73;57.18;97884.00;5116827;28;20232;-71
2022/02/19 03:26:35;;;;;;;2.57;1.10;;;;;;;5.67;58.38;97892.19;5116906;28;20211;-70
2022/02/19 03:29:02;;;;;;;3.70;1.10;;;;;;;5.60;57.63;97895.22;5116774;28;20215;-71
2022/02/19 03:31:30;;;;;;;6.97;2.23;;;;;;;5.56;58.21;97899.78;5116659;28;20214;-70
2022/02/19 03:33:56;;;;;;;2.90;1.00;;;;;;;5.44;58.17;97910.91;5114772;28;20216;-70
2022/02/19 03:36:23;;;;;;;6.37;1.80;;;;;;;5.46;57.44;97909.09;5116713;28;20229;-70
2022/02/19 03:38:49;;;;;;;5.37;1.47;;;;;;;5.56;57.04;97917.31;5116188;28;20729;-70
2022/02/19 03:41:15;;;;;;;2.10;1.13;;;;;;;5.57;57.29;97922.44;5116586;28;20207;-70
2022/02/19 03:43:42;;;;;;;5.23;1.80;;;;;;;5.53;57.48;97926.19;5116619;28;20225;-70
2022/02/19 03:46:08;;;;;;;6.63;1.57;;;;;;;5.41;58.13;97939.06;5116495;28;20218;-70
2022/02/19 03:48:36;;;;;;;3.77;1.57;;;;;;;5.22;59.33;97947.03;5116388;28;20214;-70
2022/02/19 03:51:05;;;;;;;6.27;1.43;;;;;;;5.12;60.21;97964.13;5116369;28;20207;-70
2022/02/19 03:53:31;;;;;;;7.23;1.40;;;;;;;5.14;59.20;97959.66;5116253;28;20589;-70
2022/02/19 03:55:58;;;;;;;5.00;1.60;;;;;;;5.07;60.48;97963.50;5116300;28;20210;-71
2022/02/19 03:58:24;;;;;;;8.40;1.60;;;;;;;5.06;60.34;97967.06;5116134;28;20249;-71
2022/02/19 04:00:51;;;;;;;6.47;1.77;;;;;;;5.00;60.86;97967.34;5114425;28;20220;-71
2022/02/19 04:03:17;;;;;;;5.33;1.50;;;;;;;5.00;60.36;97964.72;5116112;28;20209;-71
2022/02/19 04:05:46;;;;;;;5.87;1.33;;;;;;;5.06;60.34;97977.53;5115805;28;20210;-71
2022/02/19 04:08:12;;;;;;;4.40;1.40;;;;;;;5.02;60.13;97981.22;5115451;28;20229;-71
2022/02/19 04:10:39;;;;;;;8.57;1.53;;;;;;;4.97;59.93;97983.25;5115670;28;20690;-70
2022/02/19 04:13:05;;;;;;;4.67;1.30;;;;;;;4.95;60.69;97995.53;5115949;28;20213;-70
2022/02/19 04:15:32;;;;;;;6.73;1.43;;;;;;;5.00;59.82;97997.94;5115962;28;20203;-71
2022/02/19 04:17:59;;;;;;;3.50;1.47;;;;;;;4.93;60.75;97997.38;5115454;28;20235;-70
2022/02/19 04:20:26;;;;;;;6.10;1.63;;;;;;;4.94;61.00;98003.50;5112761;28;20683;-71
2022/02/19 04:22:56;;;;;;;5.00;1.17;;;;;;;4.87;61.09;98013.41;5115468;28;20234;-70
2022/02/19 04:25:25;;;;;;;3.90;1.73;;;;;;;4.88;61.09;98019.50;5114829;28;20218;-70
2022/02/19 04:27:52;;;;;;;5.33;1.20;;;;;;;4.87;61.03;98017.78;5114143;28;20210;-70
2022/02/19 04:30:19;;;;;;;6.13;1.67;;;;;;;4.80;61.68;98017.25;5115318;28;20221;-70
2022/02/19 04:32:45;;;;;;;2.67;1.20;;;;;;;4.89;60.71;98021.19;5115677;28;20213;-70
2022/02/19 04:35:12;;;;;;;6.07;1.50;;;;;;;4.89;60.90;98021.19;5115615;28;20217;-70
2022/02/19 04:37:39;;;;;;;5.50;1.53;;;;;;;4.81;61.06;98034.66;5115031;28;20324;-70
2022/02/19 04:40:08;;;;;;;6.43;1.57;;;;;;;4.75;61.79;98034.06;5112526;28;20221;-70
2022/02/19 04:42:35;;;;;;;4.20;1.43;;;;;;;4.86;61.31;98031.78;5115003;28;20262;-70
2022/02/19 04:45:01;;;;;;;7.43;1.60;;;;;;;4.81;61.40;98033.78;5115339;28;20570;-71
2022/02/19 04:47:28;;;;;;;7.10;1.90;;;;;;;4.71;62.16;98038.59;5115157;28;20237;-70
2022/02/19 04:49:54;;;;;;;5.27;1.47;;;;;;;4.65;62.50;98052.00;5112293;28;20217;-71
2022/02/19 04:52:21;;;;;;;6.83;2.00;;;;;;;4.66;62.64;98053.72;5113664;28;20218;-70
2022/02/19 04:54:47;;;;;;;4.37;1.40;;;;;;;4.59;63.50;98060.13;5115123;28;20221;-70
2022/02/19 04:57:15;;;;;;;4.03;1.10;;;;;;;4.59;62.83;98064.53;5114942;28;20217;-70
2022/02/19 04:59:41;;;;;;;6.33;1.70;;;;;;;4.46;63.67;98063.41;5114926;28;20243;-70
2022/02/19 05:02:08;;;;;;;4.70;1.73;;;;;;;4.42;63.88;98070.53;5114667;28;20213;-70
2022/02/19 05:04:35;;;;;;;4.43;1.40;;;;;;;4.39;63.80;98062.81;5114668;28;20213;-70
2022/02/19 05:07:01;;;;;;;8.03;2.23;;;;;;;4.32;64.40;98071.88;5114895;28;20221;-70
2022/02/19 05:09:28;;;;;;;5.30;1.80;;;;;;;4.40;63.99;98069.75;5114535;28;20240;-70
2022/02/19 05:11:54;;;;;;;4.60;1.60;;;;;;;4.39;64.54;98073.28;5114954;28;20210;-71
2022/02/19 05:14:22;;;;;;;7.53;1.83;;;;;;;4.52;63.36;98087.50;5114447;28;20303;-71
2022/02/19 05:16:49;;;;;;;7.37;2.00;;;;;;;4.51;63.64;98093.66;5114530;28;20205;-71
2022/02/19 05:19:15;;;;;;;8.20;1.63;;;;;;;4.48;64.34;98093.81;5112654;28;20717;-70
2022/02/19 05:21:42;;;;;;;8.23;1.83;;;;;;;4.42;64.58;98095.84;5114523;28;20213;-70
2022/02/19 05:24:08;;;;;;;7.47;1.87;;;;;;;4.48;64.27;98099.06;5114239;28;20287;-70
2022/02/19 05:26:35;;;;;;;5.80;1.80;;;;;;;4.48;64.75;98106.91;5114413;28;20217;-70
2022/02/19 05:29:01;;;;;;;6.57;1.97;;;;;;;4.52;65.16;98110.22;5114469;28;20216;-70
2022/02/19 05:31:29;;;;;;;6.43;1.80;;;;;;;4.39;66.46;98106.47;5114210;28;20705;-70
2022/02/19 05:33:56;;;;;;;6.77;2.10;;;;;;;4.37;66.82;98117.00;5114544;28;20223;-70
2022/02/19 05:36:22;;;;;;;5.10;1.80;;;;;;;4.36;66.54;98117.06;5114315;28;20217;-70
2022/02/19 05:38:49;;;;;;;6.10;1.47;;;;;;;4.34;67.22;98122.34;5111034;28;20264;-70
2022/02/19 05:41:15;;;;;;;4.80;1.37;;;;;;;4.28;67.45;98117.38;5114181;28;20211;-70
2022/02/19 05:43:42;;;;;;;5.00;1.40;;;;;;;4.23;67.22;98116.75;5112083;28;20692;-71
2022/02/19 05:46:08;;;;;;;8.67;2.80;;;;;;;4.15;68.41;98115.41;5114240;28;20209;-70
2022/02/19 05:48:36;;;;;;;6.77;1.70;;;;;;;4.23;67.83;98129.00;5114027;28;20214;-70
2022/02/19 05:51:02;;;;;;;5.73;1.33;;;;;;;4.31;67.02;98137.34;5114169;28;20224;-70
2022/02/19 05:53:29;;;;;;;5.53;1.60;;;;;;;4.26;66.98;98149.75;5114208;28;20263;-70
2022/02/19 05:55:55;;;;;;;5.40;2.10;;;;;;;4.27;67.33;98144.47;5114030;28;20224;-70
2022/02/19 05:58:22;;;;;;;6.17;1.97;;;;;;;4.18;67.71;98144.91;5113883;28;20241;-70
2022/02/19 06:00:48;;;;;;;5.13;2.33;;;;;;;4.16;68.30;98151.94;5113596;28;20682;-70
2022/02/19 06:03:15;;;;;;;5.53;1.93;;;;;;;4.04;69.16;98155.06;5113918;28;20220;-70
2022/02/19 06:05:43;;;;;;;5.70;1.63;;;;;;;4.00;69.57;98158.75;5113797;28;20292;-70
2022/02/19 06:08:09;;;;;;;5.40;1.50;;;;;;;3.96;69.83;98165.03;5113267;28;20214;-71
2022/02/19 06:10:36;;;;;;;5.53;1.50;;;;;;;3.88;69.92;98169.75;5112117;28;20213;-70
2022/02/19 06:13:02;;;;;;;3.67;1.50;;;;;;;3.91;70.98;98174.81;5113758;28;20296;-70
2022/02/19 06:15:29;;;;;;;6.93;1.87;;;;;;;3.90;71.06;98183.59;5113435;28;20224;-70
2022/02/19 06:17:55;;;;;;;3.10;1.33;;;;;;;3.87;70.99;98183.72;5113582;28;20238;-70
2022/02/19 06:20:22;;;;;;;4.53;2.40;;;;;;;3.89;70.75;98183.63;5113673;28;20584;-70
2022/02/19 06:22:49;;;;;;;5.47;1.50;;;;;;;3.93;70.45;98178.25;5113657;28;20223;-71
2022/02/19 06:25:16;;;;;;;9.73;2.20;;;;;;;4.02;69.49;98188.28;5113658;28;20213;-70
2022/02/19 06:27:45;;;;;;;6.43;2.07;;;;;;;4.05;69.66;98196.03;5113612;28;20217;-71
2022/02/19 06:30:13;;;;;;;6.23;1.60;;;;;;;4.00;70.00;98203.22;5113479;28;20216;-70
2022/02/19 06:32:40;;;;;;;9.63;1.67;;;;;;;3.90;70.11;98194.03;5113290;28;20270;-70
2022/02/19 06:35:07;;;;;;;5.87;1.37;;;;;;;3.91;70.14;98200.97;5113181;28;20229;-70
2022/02/19 06:37:38;;;;;;;7.10;1.80;;;;;;;3.90;70.70;98209.72;5111618;28;20224;-70
2022/02/19 06:40:08;;;;;;;8.03;1.43;;;;;;;3.94;70.15;98216.53;5110812;28;20239;-70
2022/02/19 06:42:35;;;;;;;5.60;1.57;;;;;;;3.89;70.65;98228.94;5113307;28;20212;-69
2022/02/19 06:45:01;;;;;;;4.17;2.00;;;;;;;3.81;71.34;98224.94;5113143;28;20209;-70
2022/02/19 06:47:28;;;;;;;6.27;1.70;;;;;;;3.68;72.39;98237.66;5113300;28;20593;-69
2022/02/19 06:49:54;;;;;;;8.30;2.03;;;;;;;3.78;71.54;98225.09;5113437;28;20224;-70
2022/02/19 06:52:21;;;;;;;6.10;1.83;;;;;;;3.71;72.06;98234.94;5117651;28;20222;-70
2022/02/19 06:54:47;;;;;;;5.10;1.47;;;;;;;3.69;72.44;98247.22;5117559;28;20213;-71
2022/02/19 06:57:15;;;;;;;6.23;1.57;;;;;;;3.72;72.20;98244.47;5117352;28;20216;-70
2022/02/19 06:59:42;;;;;;;4.53;2.00;;;;;;;3.82;72.28;98264.09;5117460;28;20238;-71
2022/02/19 07:02:09;;;;;;;6.63;1.43;;;;;;;3.75;72.34;98257.44;5115645;28;20212;-70
2022/02/19 07:04:35;;;;;;;8.07;1.80;;;;;;;3.72;73.11;98273.22;5117285;28;20221;-71
2022/02/19 07:07:02;;;;;;;5.67;2.00;;;;;;;3.73;73.38;98274.06;5117214;28;20221;-70
2022/02/19 07:09:28;;;;;;;5.37;1.50;;;;;;;3.65;73.70;98283.97;5117333;28;20256;-70
2022/02/19 07:11:56;;;;;;;7.50;1.73;;;;;;;3.69;73.71;98288.16;5117128;28;20213;-70
2022/02/19 07:14:24;;;;;;;6.60;1.93;;;;;;;3.66;73.81;98283.91;5117022;28;20239;-70
2022/02/19 07:16:51;;;;;;;7.63;1.60;;;;;;;3.70;73.82;98293.34;5116658;28;20208;-72
2022/02/19 07:19:18;;;;;;;5.30;1.50;;;;;;;3.74;74.02;98305.34;5116556;28;20244;-71
2022/02/19 07:21:45;;;;;;;4.33;1.30;;;;;;;3.71;74.01;98310.72;5116322;28;20216;-71
2022/02/19 07:24:12;;;;;;;7.77;1.70;;;;;;;3.73;74.21;98313.28;5117063;28;20211;-71
2022/02/19 07:26:39;;;;;;;10.57;2.13;;;;;;;3.76;74.42;98319.25;5116878;28;20223;-71
2022/02/19 07:29:06;;;;;;;4.07;1.87;;;;;;;3.78;74.27;98317.41;5115010;28;20238;-71
2022/02/19 07:31:33;;;;;;;6.20;1.70;;;;;;;3.80;74.51;98323.41;5116728;28;20218;-72
2022/02/19 07:34:00;;;;;;;6.73;1.70;;;;;;;4.02;73.30;98334.75;5116688;28;20235;-72
2022/02/19 07:36:26;;;;;;;7.87;2.60;;;;;;;4.08;72.72;98329.25;5116575;28;20212;-72
2022/02/19 07:38:53;;;;;;;5.03;1.80;;;;;;;4.21;72.19;98335.69;5116471;28;20235;-72
2022/02/19 07:41:19;;;;;;;5.20;1.63;;;;;;;4.34;71.74;98336.88;5116575;28;20221;-71
2022/02/19 07:43:46;;;;;;;4.73;1.63;;;;;;;4.41;71.41;98343.56;5116449;28;20221;-71
2022/02/19 07:46:12;;;;;;;5.27;1.87;;;;;;;4.51;70.99;98355.38;5116099;28;20212;-71
2022/02/19 07:48:40;;;;;;;4.67;1.60;;;;;;;4.65;70.83;98346.94;5116449;28;20545;-72
2022/02/19 07:59:30;;;;;;;5.57;1.70;;;;;;;4.74;70.86;98365.72;5116035;28;20726;-71
2022/02/19 08:01:57;;;;;;;8.23;1.80;;;;;;;4.73;71.23;98366.66;5114628;28;20214;-70
2022/02/19 08:04:25;;;;;;;7.23;1.87;;;;;;;4.77;70.15;98372.59;5115828;28;20209;-70
2022/02/19 08:06:51;;;;;;;6.03;1.40;;;;;;;4.80;70.18;98378.56;5115953;28;20226;-70
2022/02/19 08:09:17;;;;;;;5.30;1.97;;;;;;;4.86;70.28;98378.31;5116129;28;20238;-70
2022/02/19 08:11:44;;;;;;;5.93;1.37;;;;;;;4.81;70.51;98380.25;5116080;28;20223;-69
2022/02/19 08:14:10;;;;;;;4.40;1.70;;;;;;;4.91;70.85;98386.81;5113877;28;20221;-68
2022/02/19 08:16:37;;;;;;;7.63;1.50;;;;;;;4.92;70.25;98378.03;5115883;28;20210;-71
2022/02/19 08:19:03;;;;;;;5.03;1.70;;;;;;;4.87;71.00;98390.47;5115664;28;20237;-71
2022/02/19 08:21:31;;;;;;;8.97;1.80;;;;;;;4.85;70.87;98389.69;5114192;28;20249;-69
2022/02/19 08:23:58;;;;;;;5.70;1.80;;;;;;;4.87;71.18;98390.47;5115790;28;20221;-69
2022/02/19 08:26:25;;;;;;;6.10;1.80;;;;;;;4.84;70.98;98387.13;5115521;28;20210;-70
2022/02/19 08:28:52;;;;;;;7.07;1.80;;;;;;;4.99;71.35;98384.72;5115763;28;20241;-70
2022/02/19 08:31:19;;;;;;;6.17;2.00;;;;;;;4.97;71.49;98391.78;5115626;28;20213;-70
2022/02/19 08:33:46;;;;;;;5.43;1.60;;;;;;;5.05;70.42;98389.69;5115196;28;20218;-69
2022/02/19 08:36:12;;;;;;;6.27;2.10;;;;;;;5.09;70.82;98379.91;5115006;28;20687;-71
2022/02/19 08:38:40;;;;;;;4.93;1.63;;;;;;;5.20;70.81;98390.78;5115377;28;20234;-69
2022/02/19 08:41:06;;;;;;;6.27;2.00;;;;;;;5.59;71.24;98387.25;5115509;28;20210;-71
2022/02/19 08:43:33;;;;;;;6.53;1.60;;;;;;;5.83;66.53;98386.16;5115207;28;20613;-71
2022/02/19 08:46:00;;;;;;;7.30;2.00;;;;;;;5.74;66.64;98388.31;5115288;28;20217;-71
2022/02/19 08:48:26;;;;;;;3.80;1.57;;;;;;;5.60;66.79;98388.94;5109989;28;20301;-72
2022/02/19 08:50:53;;;;;;;8.43;2.10;;;;;;;5.56;65.90;98395.22;5113765;28;20211;-70
2022/02/19 08:53:22;;;;;;;5.37;1.57;;;;;;;5.54;66.74;98389.22;5114942;28;20225;-71
2022/02/19 08:55:50;;;;;;;6.30;1.83;;;;;;;5.53;67.13;98398.00;5112692;28;20215;-71
2022/02/19 08:58:17;;;;;;;6.60;1.83;;;;;;;5.54;65.69;98394.47;5113595;28;20262;-70
2022/02/19 09:00:43;;;;;;;9.33;2.17;;;;;;;5.56;66.19;98403.09;5113846;28;20252;-70
2022/02/19 09:03:10;;;;;;;6.37;1.40;;;;;;;5.62;65.48;98402.81;5112434;28;20685;-70
2022/02/19 09:05:36;;;;;;;6.93;2.07;;;;;;;5.71;64.76;98406.81;5113440;28;20212;-71
2022/02/19 09:08:03;;;;;;;7.00;1.60;;;;;;;5.79;63.70;98409.91;5113676;28;20210;-72
2022/02/19 09:10:29;;;;;;;4.57;1.70;;;;;;;5.85;63.61;98418.41;5113843;28;20244;-72
2022/02/19 09:12:57;;;;;;;5.93;2.00;;;;;;;5.96;60.58;98413.50;5112305;28;20231;-71
2022/02/19 09:15:26;;;;;;;7.37;1.60;;;;;;;6.27;62.75;98420.78;5112884;28;20210;-70
2022/02/19 09:17:53;;;;;;;8.73;2.03;;;;;;;6.27;60.37;98412.91;5114093;28;20255;-70
2022/02/19 09:20:21;;;;;;;4.97;2.00;;;;;;;6.25;59.43;98415.63;5113600;28;20242;-71
2022/02/19 09:22:49;;;;;;;3.70;1.40;;;;;;;6.21;60.32;98416.69;5114863;28;20307;-71
2022/02/19 09:25:16;;;;;;;7.50;1.60;;;;;;;6.20;60.23;98407.13;5111907;28;20216;-71
2022/02/19 09:27:44;;;;;;;5.63;1.40;;;;;;;6.19;60.45;98412.44;5114643;28;20578;-70
2022/02/19 09:30:13;;;;;;;7.60;2.10;;;;;;;6.18;60.39;98413.38;5114255;28;20396;-70
2022/02/19 09:32:40;;;;;;;4.47;1.70;;;;;;;6.16;60.58;98416.03;5114383;28;20218;-70
2022/02/19 09:35:08;;;;;;;7.83;1.50;;;;;;;6.23;60.13;98422.69;5114155;28;20220;-70
2022/02/19 09:37:35;;;;;;;5.47;1.47;;;;;;;6.25;59.15;98425.25;5114289;28;20216;-71
2022/02/19 09:40:01;;;;;;;5.33;1.80;;;;;;;6.28;59.19;98436.47;5112283;28;20235;-71
2022/02/19 09:42:28;;;;;;;6.87;1.30;;;;;;;6.24;60.89;98434.91;5114237;28;20261;-71
2022/02/19 09:44:56;;;;;;;6.20;1.90;;;;;;;6.29;60.57;98432.91;5111402;28;20214;-71
2022/02/19 09:47:27;;;;;;;3.87;1.30;;;;;;;6.37;58.09;98436.06;5113928;28;20226;-71
2022/02/19 09:49:54;;;;;;;4.70;1.30;;;;;;;6.44;59.41;98437.44;5114139;28;20626;-70
2022/02/19 09:52:23;;;;;;;6.23;1.60;;;;;;;6.46;59.06;98447.84;5114144;28;20661;-71
2022/02/19 09:54:50;;;;;;;7.83;1.40;;;;;;;6.53;58.21;98447.50;5114031;28;20227;-71
2022/02/19 09:57:16;;;;;;;6.87;1.53;;;;;;;6.55;57.53;98461.44;5113966;28;20214;-70
2022/02/19 09:59:43;;;;;;;3.80;1.80;;;;;;;6.57;56.86;98459.56;5113527;28;20786;-70
2022/02/19 10:02:09;;;;;;;6.63;1.60;;;;;;;6.63;57.48;98463.66;5113917;28;20211;-71
2022/02/19 10:04:38;;;;;;;7.07;1.63;;;;;;;6.77;56.51;98461.25;5111585;28;20228;-70
2022/02/19 10:07:15;;;;;;;4.57;1.63;;;;;;;6.78;56.45;98463.75;5112229;28;20211;-71
2022/02/19 10:09:43;;;;;;;6.77;1.50;;;;;;;6.79;56.53;98468.09;5113935;28;20278;-70
2022/02/19 10:12:11;;;;;;;5.33;1.73;;;;;;;6.83;57.21;98466.19;5110839;28;20218;-70
2022/02/19 10:14:39;;;;;;;5.70;1.40;;;;;;;6.98;55.51;98463.66;5113708;28;20219;-71
2022/02/19 10:17:15;;;;;;;4.47;1.27;;;;;;;7.02;55.85;98452.03;5113464;28;20215;-71
2022/02/19 10:19:54;;;;;;;5.40;1.80;;;;;;;7.05;55.48;98456.31;5113434;28;20265;-72
2022/02/19 10:22:23;;;;;;;6.90;1.97;;;;;;;6.99;55.25;98462.72;5111348;28;20293;-72
2022/02/19 10:24:52;;;;;;;10.37;1.77;;;;;;;7.11;55.75;98472.63;5112715;28;20219;-71
2022/02/19 10:27:19;;;;;;;5.97;1.40;;;;;;;7.14;53.96;98461.13;5113332;28;20692;-71
2022/02/19 10:29:51;;;;;;;6.47;1.40;;;;;;;7.04;54.52;98471.25;5113288;28;20219;-72
2022/02/19 10:32:18;;;;;;;4.57;1.30;;;;;;;7.00;53.89;98468.81;5111807;28;20210;-71
2022/02/19 10:34:57;;;;;;;5.47;2.03;;;;;;;7.08;54.16;98472.75;5113296;28;20221;-71
2022/02/19 10:37:24;;;;;;;5.63;1.70;;;;;;;7.08;53.60;98472.75;5113302;28;20298;-72
2022/02/19 10:39:51;;;;;;;3.40;1.37;;;;;;;6.96;53.73;98481.25;5113271;28;20287;-69
2022/02/19 10:42:18;;;;;;;4.37;2.00;;;;;;;6.80;53.52;98477.69;5101855;28;20294;-70
2022/02/19 10:44:45;;;;;;;2.43;1.27;;;;;;;6.73;54.11;98475.44;5113083;28;20214;-70
2022/02/19 10:47:19;;;;;;;4.63;1.57;;;;;;;6.62;54.17;98462.81;5113357;28;20262;-71
2022/02/19 10:50:09;;;;;;;4.90;1.57;;;;;;;6.70;54.95;98465.91;5113319;28;20229;-70
2022/02/19 10:52:37;;;;;;;5.00;1.57;;;;;;;6.64;55.36;98460.97;5113459;28;20707;-70
2022/02/19 10:55:06;;;;;;;4.60;1.40;;;;;;;6.86;53.65;98459.00;5113171;28;20694;-70
2022/02/19 10:57:37;;;;;;;6.23;2.13;;;;;;;6.94;54.42;98469.97;5111576;28;20217;-70
2022/02/19 11:00:10;;;;;;;4.73;1.17;;;;;;;6.94;54.08;98474.38;5102767;28;20314;-70
2022/02/19 11:02:38;;;;;;;3.27;1.40;;;;;;;7.14;52.72;98472.47;5113009;28;20219;-70
2022/02/19 11:05:05;;;;;;;4.03;1.40;;;;;;;7.32;52.73;98476.78;5113271;28;20213;-70
2022/02/19 11:07:35;;;;;;;5.37;1.30;;;;;;;7.49;53.22;98484.69;5110760;28;20212;-70
2022/02/19 11:10:02;;;;;;;3.30;1.40;;;;;;;7.67;52.18;98483.72;5112938;28;20236;-70
2022/02/19 11:12:29;;;;;;;4.10;1.30;;;;;;;7.73;50.79;98472.88;5112889;28;20235;-70
2022/02/19 11:14:56;;;;;;;5.47;1.50;;;;;;;7.77;50.07;98479.69;5112718;28;20701;-70
2022/02/19 11:17:24;;;;;;;2.93;1.17;;;;;;;7.81;50.25;98474.19;5113045;28;20220;-70
2022/02/19 11:19:50;;;;;;;7.27;1.27;;;;;;;7.89;49.56;98464.09;5112868;28;20246;-71
2022/02/19 11:22:19;;;;;;;4.53;1.30;;;;;;;7.80;49.57;98475.13;5113212;28;20585;-70
2022/02/19 11:24:48;;;;;;;2.80;1.10;;;;;;;7.59;49.16;98460.44;5111326;28;20610;-70
2022/02/19 11:27:16;;;;;;;4.10;1.17;;;;;;;7.43;48.21;98474.47;5113089;28;20211;-70
2022/02/19 11:29:44;;;;;;;4.50;1.20;;;;;;;7.32;49.66;98476.78;5112793;28;20672;-70
2022/02/19 11:32:16;;;;;;;3.67;1.00;;;;;;;7.24;50.63;98465.81;5112727;28;20224;-69
2022/02/19 11:34:49;;;;;;;6.13;1.47;;;;;;;7.42;50.34;98457.00;5112995;28;20218;-71
2022/02/19 11:37:17;;;;;;;1.93;1.23;;;;;;;7.68;48.25;98461.75;5115400;28;20207;-71
2022/02/19 11:40:10;;;;;;;3.43;1.10;;;;;;;7.84;48.28;98444.22;5116381;28;20245;-72
2022/02/19 11:42:47;;;;;;;2.20;0.80;;;;;;;8.05;47.57;98443.94;5114175;28;20214;-72
2022/02/19 11:45:23;;;;;;;5.37;1.10;;;;;;;8.15;47.48;98439.84;5105488;28;20216;-71
2022/02/19 11:47:51;;;;;;;4.27;1.50;;;;;;;8.26;47.42;98434.88;5116195;28;20216;-70
2022/02/19 11:50:21;;;;;;;1.93;1.00;;;;;;;8.32;47.34;98431.06;5114397;28;20216;-71